Time;durP1;ratioP1;P1;durP2;ratioP2;P2;SDS_P1;SDS_P2;PMS_P1;PMS_P2;Temp;Humidity;BMP_temperature;BMP_pressure;BME280_temperature;BME280_humidity;BME280_pressure;Samples;Min_cycle;Max_cycle;Signal;HPM_P1;HPM_P2
2022/11/16 06:03:48;;;;;;;12.68;8.82;;;10.30;99.90;;;;;;4961985;29;20281;-74
2022/11/16 06:06:14;;;;;;;14.68;9.02;;;10.20;99.90;;;;;;4962393;29;20035;-74
2022/11/16 06:08:42;;;;;;;15.03;9.07;;;10.20;99.90;;;;;;4949892;29;20087;-71
2022/11/16 06:11:12;;;;;;;15.55;9.32;;;10.10;99.90;;;;;;4958334;29;20823;-72
2022/11/16 06:13:38;;;;;;;15.23;8.52;;;10.10;99.90;;;;;;4964352;29;20027;-72
2022/11/16 06:16:06;;;;;;;44.97;31.98;;;10.10;99.90;;;;;;4963221;29;20024;-72
2022/11/16 06:18:39;;;;;;;25.80;17.30;;;10.10;99.90;;;;;;4962417;29;20244;-75
2022/11/16 06:21:05;;;;;;;15.95;9.98;;;10.10;99.90;;;;;;4963469;29;20027;-71
2022/11/16 06:23:31;;;;;;;12.18;7.85;;;10.20;99.90;;;;;;4943026;29;20082;-72
2022/11/16 06:25:57;;;;;;;14.10;7.30;;;10.20;99.90;;;;;;4974890;28;20289;-72
2022/11/16 06:28:26;;;;;;;15.05;7.90;;;10.30;99.90;;;;;;4962509;29;20077;-74
2022/11/16 06:30:52;;;;;;;11.60;6.15;;;10.30;99.90;;;;;;4962694;29;20035;-72
2022/11/16 06:33:18;;;;;;;10.35;6.15;;;10.30;99.90;;;;;;4962109;29;20027;-74
2022/11/16 06:35:44;;;;;;;10.48;5.95;;;10.40;99.90;;;;;;4946598;29;20023;-72
2022/11/16 06:38:17;;;;;;;9.88;5.85;;;10.40;99.90;;;;;;4944266;29;20023;-72
2022/11/16 06:40:54;;;;;;;10.80;5.90;;;10.40;99.90;;;;;;4962674;29;20225;-75
2022/11/16 06:43:21;;;;;;;18.17;11.45;;;10.40;99.90;;;;;;4978243;28;20216;-73
2022/11/16 06:45:50;;;;;;;18.60;12.48;;;10.50;99.90;;;;;;4946647;29;20031;-72
2022/11/16 06:48:16;;;;;;;11.63;7.20;;;10.50;99.90;;;;;;4978193;28;20030;-71
2022/11/16 06:50:42;;;;;;;11.02;6.43;;;10.50;99.90;;;;;;4946310;29;20039;-74
2022/11/16 06:53:08;;;;;;;8.38;4.80;;;10.50;99.90;;;;;;4962393;29;20031;-73
2022/11/16 06:55:34;;;;;;;7.47;4.53;;;10.60;99.90;;;;;;4926995;29;20066;-70
2022/11/16 06:58:01;;;;;;;7.97;4.28;;;10.60;99.90;;;;;;4964416;28;20029;-71
2022/11/16 07:00:27;;;;;;;6.30;3.13;;;10.70;99.90;;;;;;4966287;29;20135;-71
2022/11/16 07:02:54;;;;;;;7.60;4.28;;;10.70;99.90;;;;;;4995376;28;20049;-71
2022/11/16 07:05:21;;;;;;;10.00;4.28;;;10.80;99.90;;;;;;4985289;28;20026;-71
2022/11/16 07:07:47;;;;;;;7.05;4.07;;;10.80;99.90;;;;;;5002120;28;20034;-72
2022/11/16 07:10:13;;;;;;;7.03;4.07;;;10.80;99.90;;;;;;4981989;28;20022;-71
2022/11/16 07:12:38;;;;;;;6.07;3.10;;;10.90;99.90;;;;;;5002039;28;20031;-71
2022/11/16 07:15:06;;;;;;;4.82;2.80;;;10.90;99.90;;;;;;5001343;28;20026;-73
2022/11/16 07:17:34;;;;;;;4.43;2.50;;;10.90;99.90;;;;;;4969522;28;20027;-73
2022/11/16 07:19:59;;;;;;;3.50;2.40;;;10.90;99.90;;;;;;5001761;28;20065;-75
2022/11/16 07:22:25;;;;;;;5.03;2.80;;;11.00;99.90;;;;;;4969355;28;20114;-73
2022/11/16 07:24:52;;;;;;;7.57;2.50;;;11.00;99.90;;;;;;4996847;28;20031;-73
2022/11/16 07:30:40;;;;;;;4.22;2.58;;;11.00;99.90;;;;;;4937444;28;20295;-72
2022/11/16 07:33:13;;;;;;;5.07;2.83;;;11.10;99.90;;;;;;4966400;28;20388;-72
2022/11/16 07:36:07;;;;;;;7.23;4.23;;;11.10;99.90;;;;;;4985421;28;20030;-73
2022/11/16 07:38:33;;;;;;;5.97;4.05;;;11.20;99.90;;;;;;4986624;28;20030;-73
2022/11/16 07:41:11;;;;;;;3.75;2.17;;;11.20;99.90;;;;;;4979656;28;20062;-73
2022/11/16 07:43:47;;;;;;;3.70;2.15;;;11.30;99.90;;;;;;4999309;28;20101;-72
2022/11/16 07:46:17;;;;;;;3.45;1.67;;;11.40;99.90;;;;;;4978472;28;20022;-73
2022/11/16 07:48:44;;;;;;;2.38;1.27;;;11.40;99.90;;;;;;4986781;28;20039;-73
2022/11/16 07:51:39;;;;;;;3.90;1.35;;;11.60;99.90;;;;;;4968991;28;20090;-72
2022/11/16 07:54:43;;;;;;;2.65;1.17;;;11.80;99.90;;;;;;4924721;29;20039;-73
2022/11/16 07:57:08;;;;;;;2.05;0.93;;;11.90;99.90;;;;;;4955893;28;20161;-73
2022/11/16 07:59:40;;;;;;;2.28;0.85;;;11.90;99.90;;;;;;4967060;28;20026;-73
2022/11/16 08:02:07;;;;;;;2.75;1.00;;;12.00;99.90;;;;;;4966230;28;20058;-74
2022/11/16 08:04:33;;;;;;;2.55;0.90;;;12.00;99.90;;;;;;4966730;28;20066;-74
2022/11/16 08:06:59;;;;;;;2.97;1.10;;;12.00;99.90;;;;;;4984143;28;20219;-74
2022/11/16 08:09:28;;;;;;;3.10;0.90;;;12.00;99.90;;;;;;4982317;28;20019;-73
2022/11/16 08:11:57;;;;;;;3.25;1.50;;;12.00;99.90;;;;;;4984265;28;20037;-74
2022/11/16 08:14:23;;;;;;;4.50;1.70;;;12.00;99.90;;;;;;4966398;28;20282;-74
2022/11/16 08:16:50;;;;;;;4.07;1.48;;;12.00;99.90;;;;;;4966314;28;20076;-74
2022/11/16 08:19:16;;;;;;;3.83;1.33;;;12.10;99.90;;;;;;4966333;28;20030;-73
2022/11/16 08:21:44;;;;;;;3.67;1.10;;;12.10;99.90;;;;;;4966565;28;20047;-72
2022/11/16 08:24:11;;;;;;;3.75;1.10;;;12.30;99.90;;;;;;4982337;28;20367;-73
2022/11/16 08:26:40;;;;;;;4.75;1.42;;;12.30;99.90;;;;;;4951255;28;20070;-75
2022/11/16 08:29:10;;;;;;;4.25;0.85;;;12.40;99.90;;;;;;4966065;28;20265;-74
2022/11/16 08:31:39;;;;;;;3.55;1.10;;;12.50;99.90;;;;;;4966314;28;20026;-74
2022/11/16 08:34:10;;;;;;;6.38;1.70;;;12.60;99.90;;;;;;4965904;28;20030;-74
2022/11/16 08:36:39;;;;;;;2.17;0.75;;;12.70;99.90;;;;;;4966186;28;20265;-73
2022/11/16 08:39:05;;;;;;;3.47;1.00;;;12.70;99.90;;;;;;4965722;28;20033;-74
2022/11/16 08:41:34;;;;;;;5.38;1.25;;;12.80;99.90;;;;;;4966249;28;20042;-74
2022/11/16 08:44:01;;;;;;;4.15;1.08;;;12.90;99.90;;;;;;4965937;28;20031;-74
2022/11/16 08:46:27;;;;;;;2.83;0.93;;;13.00;99.90;;;;;;4965963;28;20027;-73
2022/11/16 08:49:01;;;;;;;2.65;0.65;;;12.90;99.90;;;;;;4982465;28;20308;-73
2022/11/16 08:51:27;;;;;;;3.35;0.82;;;12.90;99.90;;;;;;4983070;28;20039;-74
2022/11/16 08:54:02;;;;;;;3.80;1.10;;;12.90;99.90;;;;;;4966331;28;20036;-73
2022/11/16 08:56:29;;;;;;;;;;;12.90;99.90;;;;;;4966345;28;20095;-73
2022/11/16 08:58:55;;;;;;;4.55;1.00;;;12.80;99.90;;;;;;4965943;28;19902;-73
2022/11/16 09:01:24;;;;;;;4.93;2.17;;;12.90;99.90;;;;;;4974356;28;20319;-74
2022/11/16 09:03:51;;;;;;;7.57;2.33;;;12.80;99.90;;;;;;4946903;29;20054;-74
2022/11/16 09:06:17;;;;;;;3.38;1.08;;;12.80;99.90;;;;;;4978170;28;20106;-75
2022/11/16 09:08:45;;;;;;;2.63;0.80;;;12.80;99.90;;;;;;4963759;29;20082;-74
2022/11/16 09:11:13;;;;;;;3.58;1.08;;;12.70;99.90;;;;;;4980080;28;20019;-75
2022/11/16 09:13:39;;;;;;;3.67;1.00;;;12.80;99.90;;;;;;4982767;28;20038;-75
2022/11/16 09:16:05;;;;;;;3.50;0.73;;;12.80;99.90;;;;;;4979677;28;20568;-75
2022/11/16 09:18:33;;;;;;;2.45;0.80;;;12.90;99.90;;;;;;4981160;28;20041;-76
2022/11/16 09:20:58;;;;;;;2.10;0.50;;;13.00;99.90;;;;;;4981505;28;20041;-74
2022/11/16 09:23:24;;;;;;;3.10;0.77;;;13.10;99.90;;;;;;4982085;28;20377;-74
2022/11/16 09:25:50;;;;;;;3.67;1.05;;;13.10;99.90;;;;;;4982811;28;20046;-75
2022/11/16 09:28:19;;;;;;;2.13;0.70;;;13.30;99.90;;;;;;4982167;28;20029;-75
2022/11/16 09:30:49;;;;;;;3.13;0.80;;;13.40;99.90;;;;;;4965559;28;20034;-73
2022/11/16 09:33:15;;;;;;;4.45;0.77;;;13.40;99.90;;;;;;4966286;28;20039;-73
2022/11/16 09:35:41;;;;;;;3.35;0.60;;;13.30;99.90;;;;;;4963636;29;20090;-74
2022/11/16 09:38:08;;;;;;;2.50;0.40;;;13.30;99.90;;;;;;4962652;29;20395;-74
2022/11/16 09:40:37;;;;;;;3.83;0.40;;;13.20;99.90;;;;;;4963273;29;20039;-73
2022/11/16 09:43:09;;;;;;;3.92;0.65;;;13.10;99.90;;;;;;4996080;28;20022;-74
2022/11/16 09:45:57;;;;;;;2.65;0.47;;;13.20;99.90;;;;;;4948924;28;20054;-75
2022/11/16 09:48:23;;;;;;;4.75;0.60;;;13.30;99.90;;;;;;4961265;29;20098;-74
2022/11/16 09:51:00;;;;;;;2.00;0.50;;;13.40;99.90;;;;;;4981633;28;20029;-74
2022/11/16 09:53:32;;;;;;;3.00;0.50;;;13.40;99.90;;;;;;4981866;28;20401;-75
2022/11/16 09:56:11;;;;;;;2.22;0.40;;;13.50;99.90;;;;;;4982256;28;20212;-75
2022/11/16 09:59:02;;;;;;;2.83;0.73;;;13.50;99.90;;;;;;4982300;28;20035;-76
2022/11/16 10:01:44;;;;;;;3.42;0.40;;;13.70;99.90;;;;;;4981692;28;20031;-74
2022/11/16 10:04:22;;;;;;;2.42;0.38;;;13.70;99.90;;;;;;4977463;28;20038;-75
2022/11/16 10:07:16;;;;;;;2.97;0.50;;;13.90;99.90;;;;;;4984756;28;20030;-73
2022/11/16 10:09:46;;;;;;;1.77;0.40;;;14.00;99.90;;;;;;4999573;28;20269;-74
2022/11/16 10:12:23;;;;;;;2.25;0.60;;;14.00;99.90;;;;;;4983907;28;20041;-74
2022/11/16 10:15:14;;;;;;;1.63;0.40;;;14.20;99.90;;;;;;4983778;28;20332;-75
2022/11/16 10:17:56;;;;;;;2.15;0.32;;;14.30;99.90;;;;;;4982185;28;20046;-74
2022/11/16 10:20:50;;;;;;;1.70;0.40;;;14.60;99.90;;;;;;4977274;28;20030;-74
2022/11/16 10:23:36;;;;;;;1.98;0.40;;;14.80;99.90;;;;;;4981599;28;20042;-74
2022/11/16 10:26:26;;;;;;;1.92;0.30;;;15.10;99.90;;;;;;4981725;28;20065;-74
2022/11/16 10:29:06;;;;;;;1.85;0.40;;;15.10;99.90;;;;;;4981946;28;20030;-74
2022/11/16 10:31:56;;;;;;;2.05;0.47;;;15.10;99.90;;;;;;4997073;28;20023;-74
2022/11/16 10:34:27;;;;;;;1.80;0.37;;;15.10;99.90;;;;;;4979025;28;20264;-74
2022/11/16 10:36:59;;;;;;;4.20;0.65;;;15.00;99.90;;;;;;4986165;28;20330;-74
2022/11/16 10:39:26;;;;;;;2.78;0.40;;;15.20;99.90;;;;;;4984158;28;20097;-74
2022/11/16 10:41:52;;;;;;;1.27;0.40;;;16.10;99.90;;;;;;5000949;28;20102;-74
2022/11/16 10:44:44;;;;;;;1.58;0.30;;;16.80;99.90;;;;;;4985634;28;20035;-73
2022/11/16 10:47:34;;;;;;;1.05;0.20;;;17.50;99.90;;;;;;4967980;28;20034;-75
2022/11/16 10:50:22;;;;;;;0.93;0.30;;;17.70;99.90;;;;;;4971017;28;20288;-76
2022/11/16 10:52:48;;;;;;;1.20;0.35;;;17.90;99.90;;;;;;5000848;28;20018;-76
2022/11/16 10:55:15;;;;;;;1.88;0.50;;;18.20;99.90;;;;;;4985428;28;20193;-78
2022/11/16 10:58:02;;;;;;;1.90;0.50;;;19.10;99.90;;;;;;4993579;28;20081;-75
2022/11/16 11:00:42;;;;;;;1.35;0.55;;;19.80;98.60;;;;;;5003431;28;20026;-74
2022/11/16 11:03:10;;;;;;;1.27;0.20;;;20.70;95.90;;;;;;5004314;28;20228;-73
2022/11/16 11:05:46;;;;;;;2.90;0.80;;;21.00;93.90;;;;;;4994536;28;20054;-74
2022/11/16 11:08:11;;;;;;;3.67;0.70;;;21.30;94.30;;;;;;4984713;28;20098;-74
2022/11/16 11:10:40;;;;;;;1.58;0.35;;;22.20;92.70;;;;;;4985318;28;20042;-74
2022/11/16 11:13:12;;;;;;;4.53;0.40;;;22.20;90.90;;;;;;4985119;28;20042;-74
2022/11/16 11:15:39;;;;;;;4.63;1.52;;;23.20;88.80;;;;;;4985326;28;20034;-72
2022/11/16 11:18:19;;;;;;;2.28;0.70;;;23.20;88.80;;;;;;4985257;28;20093;-72
2022/11/16 11:21:06;;;;;;;1.92;0.60;;;23.10;87.30;;;;;;4984546;28;20098;-74
2022/11/16 11:23:46;;;;;;;5.07;1.95;;;22.60;87.40;;;;;;4983417;28;20057;-73
2022/11/16 11:26:40;;;;;;;3.50;0.73;;;22.90;85.30;;;;;;4999536;28;20105;-72
2022/11/16 11:29:25;;;;;;;2.25;0.47;;;22.80;83.50;;;;;;4984897;28;20410;-72
2022/11/16 11:31:54;;;;;;;3.60;1.90;;;20.80;88.50;;;;;;4984953;28;20038;-71
2022/11/16 11:34:29;;;;;;;2.90;0.90;;;19.30;90.80;;;;;;4984044;28;20332;-71
2022/11/16 11:37:00;;;;;;;2.08;0.95;;;18.80;92.20;;;;;;4980306;28;20035;-72
2022/11/16 11:39:32;;;;;;;2.90;1.02;;;18.30;93.10;;;;;;4984219;28;20039;-73
2022/11/16 11:42:12;;;;;;;2.35;0.60;;;18.10;93.80;;;;;;4998314;28;20073;-73
2022/11/16 11:44:57;;;;;;;2.33;0.80;;;17.90;94.10;;;;;;4983252;28;20046;-73
2022/11/16 11:47:29;;;;;;;3.17;1.13;;;17.70;94.20;;;;;;4967054;28;20019;-73
2022/11/16 11:50:18;;;;;;;1.75;0.50;;;17.30;96.00;;;;;;4984384;28;20035;-74
2022/11/16 11:53:11;;;;;;;3.88;0.50;;;17.20;94.90;;;;;;4966916;28;20205;-75
2022/11/16 11:55:38;;;;;;;3.63;0.60;;;17.10;93.70;;;;;;4984908;28;20053;-73
2022/11/16 11:58:10;;;;;;;2.72;0.43;;;17.00;93.20;;;;;;4999581;28;20025;-73
2022/11/16 12:00:54;;;;;;;2.15;0.63;;;16.80;93.40;;;;;;4967286;28;20019;-73
2022/11/16 12:03:47;;;;;;;4.63;0.80;;;17.00;94.50;;;;;;4983287;28;20611;-73
2022/11/16 12:06:16;;;;;;;2.30;0.35;;;16.90;93.50;;;;;;4984022;28;20061;-74
2022/11/16 12:08:51;;;;;;;;;;;16.80;95.00;;;;;;4951889;28;20031;-73
2022/11/16 12:11:41;;;;;;;3.85;0.80;;;16.70;94.20;;;;;;4983929;28;19949;-74
2022/11/16 12:14:36;;;;;;;3.55;0.90;;;16.70;94.30;;;;;;4984183;28;20038;-73
2022/11/16 12:17:32;;;;;;;3.78;0.90;;;16.50;94.70;;;;;;4964638;29;20031;-73
2022/11/16 12:20:06;;;;;;;3.05;0.40;;;17.00;94.30;;;;;;4964258;29;20179;-73
2022/11/16 12:23:01;;;;;;;2.13;0.50;;;17.70;93.00;;;;;;4963744;29;20064;-72
2022/11/16 12:25:56;;;;;;;1.90;0.70;;;19.90;90.50;;;;;;4929589;29;20050;-72
2022/11/16 12:28:40;;;;;;;1.60;0.40;;;21.70;87.00;;;;;;4958664;29;20031;-73
2022/11/16 12:31:18;;;;;;;1.90;0.30;;;23.70;81.30;;;;;;4971094;28;20045;-73
2022/11/16 12:34:08;;;;;;;2.47;0.50;;;25.10;79.00;;;;;;4982571;28;20122;-72
2022/11/16 12:37:08;;;;;;;1.63;0.38;;;25.20;73.50;;;;;;4997838;28;20089;-73
2022/11/16 12:39:34;;;;;;;2.38;0.40;;;24.10;75.80;;;;;;4983138;28;20124;-72
2022/11/16 12:42:26;;;;;;;1.88;0.40;;;23.00;78.10;;;;;;4982972;28;20277;-70
2022/11/16 12:45:16;;;;;;;2.38;0.45;;;21.70;79.10;;;;;;4963981;29;20248;-70
2022/11/16 12:48:11;;;;;;;2.10;0.35;;;20.40;83.20;;;;;;4964121;29;20062;-70
2022/11/16 12:50:49;;;;;;;3.97;0.65;;;19.80;87.30;;;;;;4995059;28;20066;-71
2022/11/16 12:53:46;;;;;;;1.65;0.30;;;19.20;85.60;;;;;;4997824;28;20038;-71
2022/11/16 12:56:33;;;;;;;2.30;0.57;;;19.10;85.20;;;;;;4982808;28;20376;-73
2022/11/16 12:59:27;;;;;;;2.33;0.47;;;19.00;85.50;;;;;;4983048;28;20297;-71
2022/11/16 13:02:08;;;;;;;1.65;0.35;;;19.80;83.10;;;;;;4945194;28;20240;-71
2022/11/16 13:04:44;;;;;;;2.15;0.40;;;20.40;81.40;;;;;;4982996;28;20082;-71
2022/11/16 13:07:22;;;;;;;2.10;0.50;;;20.60;82.00;;;;;;4983068;28;20027;-71
2022/11/16 13:09:54;;;;;;;2.67;0.40;;;21.00;79.40;;;;;;4982942;28;20108;-73
2022/11/16 13:12:23;;;;;;;1.88;0.10;;;21.60;77.10;;;;;;4982458;28;20030;-74
2022/11/16 13:14:53;;;;;;;2.33;0.25;;;22.00;77.40;;;;;;4982677;28;20225;-73
2022/11/16 13:17:29;;;;;;;2.38;0.50;;;21.90;75.60;;;;;;4981964;28;20030;-72
2022/11/16 13:20:18;;;;;;;1.55;0.20;;;22.10;75.20;;;;;;4982798;28;20118;-73
2022/11/16 13:23:13;;;;;;;1.35;0.15;;;22.20;75.90;;;;;;4982438;28;20035;-75
2022/11/16 13:25:41;;;;;;;1.20;0.30;;;22.50;74.30;;;;;;4969011;28;20305;-73
2022/11/16 13:28:30;;;;;;;;;;;22.90;73.90;;;;;;4964842;29;20019;-74
2022/11/16 13:31:12;;;;;;;5.18;0.70;;;23.20;72.80;;;;;;4963598;29;19906;-72
2022/11/16 13:33:48;;;;;;;1.20;0.20;;;22.90;73.90;;;;;;4962357;29;20066;-72
2022/11/16 13:36:45;;;;;;;1.85;0.30;;;22.10;73.10;;;;;;4946037;29;20032;-73
2022/11/16 13:39:13;;;;;;;1.73;0.35;;;21.40;75.20;;;;;;4941734;29;20063;-75
2022/11/16 13:41:40;;;;;;;;;;;21.50;79.00;;;;;;4952940;28;20034;-72
2022/11/16 13:44:22;;;;;;;2.05;0.30;;;21.70;74.20;;;;;;4982273;28;19906;-73
2022/11/16 13:47:03;;;;;;;2.60;0.40;;;20.30;76.20;;;;;;4982802;28;20066;-73
2022/11/16 13:49:56;;;;;;;2.72;0.40;;;19.20;78.20;;;;;;4981538;28;20143;-73
2022/11/16 13:52:22;;;;;;;0.77;0.20;;;18.20;80.60;;;;;;5013812;28;20060;-73
2022/11/16 13:54:51;;;;;;;2.83;0.32;;;17.70;82.30;;;;;;5001418;28;20045;-73
2022/11/16 13:57:33;;;;;;;3.03;0.52;;;17.20;83.10;;;;;;4995956;28;20038;-73
2022/11/16 14:00:01;;;;;;;3.25;0.50;;;17.00;85.00;;;;;;4982101;28;20030;-74
2022/11/16 14:02:37;;;;;;;1.65;0.63;;;16.80;84.70;;;;;;4981273;28;20078;-73
2022/11/16 14:05:13;;;;;;;3.03;0.80;;;16.60;85.90;;;;;;4982043;28;20034;-72
2022/11/16 14:07:48;;;;;;;3.50;0.50;;;16.50;86.60;;;;;;4981209;28;20042;-73
2022/11/16 14:10:32;;;;;;;2.40;0.30;;;16.40;85.50;;;;;;4982074;28;20245;-73
2022/11/16 14:13:00;;;;;;;1.75;0.50;;;16.50;85.60;;;;;;4964695;28;20328;-73
2022/11/16 14:15:36;;;;;;;4.37;0.80;;;16.40;87.30;;;;;;4964188;28;20034;-74
2022/11/16 14:18:10;;;;;;;3.72;0.45;;;16.90;85.30;;;;;;4981419;28;20034;-74
2022/11/16 14:20:55;;;;;;;2.63;0.50;;;17.50;84.10;;;;;;4978660;28;20294;-73
2022/11/16 14:23:26;;;;;;;1.50;0.30;;;18.00;82.30;;;;;;4979747;28;20038;-74
2022/11/16 14:26:03;;;;;;;2.67;0.30;;;18.60;81.80;;;;;;4964959;28;20066;-74
2022/11/16 14:28:34;;;;;;;1.67;0.40;;;18.90;81.00;;;;;;4961902;29;20085;-74
2022/11/16 14:31:18;;;;;;;1.88;0.30;;;18.70;80.30;;;;;;4962466;29;20305;-74
2022/11/16 14:33:50;;;;;;;2.13;0.30;;;18.10;81.50;;;;;;4963165;29;20066;-74
2022/11/16 14:36:16;;;;;;;3.30;0.50;;;17.40;82.60;;;;;;4962790;29;20098;-72
2022/11/16 14:38:42;;;;;;;2.67;0.40;;;17.30;83.50;;;;;;4962158;29;20379;-73
2022/11/16 14:41:20;;;;;;;2.83;0.98;;;17.60;84.40;;;;;;4965198;28;20033;-73
2022/11/16 14:43:52;;;;;;;2.78;1.23;;;18.30;83.00;;;;;;4982100;28;20351;-73
2022/11/16 14:46:26;;;;;;;2.80;0.73;;;18.80;80.70;;;;;;4981252;28;20062;-72
2022/11/16 14:48:55;;;;;;;2.25;0.35;;;18.80;80.70;;;;;;4981739;28;20030;-73
2022/11/16 14:51:25;;;;;;;4.25;0.90;;;18.80;80.20;;;;;;4989605;28;20026;-72
2022/11/16 14:53:55;;;;;;;2.88;0.50;;;18.60;81.50;;;;;;5000982;28;20057;-72
2022/11/16 14:56:21;;;;;;;2.60;0.75;;;18.30;81.90;;;;;;4995944;28;20007;-72
2022/11/16 14:58:52;;;;;;;3.25;0.40;;;18.10;83.00;;;;;;4981376;28;20030;-72
2022/11/16 15:01:22;;;;;;;1.80;0.40;;;18.00;83.50;;;;;;4980659;28;20041;-75
2022/11/16 15:03:56;;;;;;;3.50;0.70;;;17.90;84.20;;;;;;4960575;29;20055;-75
2022/11/16 15:06:24;;;;;;;2.47;0.63;;;17.80;85.90;;;;;;4976718;28;20445;-74
2022/11/16 15:08:59;;;;;;;2.53;0.70;;;17.40;86.00;;;;;;4962465;28;20034;-75
2022/11/16 15:14:25;;;;;;;2.83;0.80;;;16.30;89.20;;;;;;4961277;29;20047;-74
2022/11/16 15:16:53;;;;;;;4.38;1.77;;;15.80;91.00;;;;;;4962171;28;20043;-75
2022/11/16 15:19:20;;;;;;;4.28;0.80;;;15.30;91.00;;;;;;4964116;28;20100;-73
2022/11/16 15:21:53;;;;;;;3.00;0.65;;;14.90;91.90;;;;;;4965323;28;20031;-75
2022/11/16 15:24:24;;;;;;;6.57;3.03;;;14.60;92.40;;;;;;4946798;29;20265;-75
2022/11/16 15:26:50;;;;;;;14.00;6.28;;;14.30;93.00;;;;;;4964023;28;20027;-72
2022/11/16 15:29:20;;;;;;;9.43;4.63;;;14.00;93.90;;;;;;4964075;28;20026;-73
2022/11/16 15:31:47;;;;;;;5.85;1.70;;;13.80;94.80;;;;;;4964757;28;20095;-74
2022/11/16 15:34:20;;;;;;;6.30;1.73;;;13.60;95.40;;;;;;4964546;28;20042;-72
2022/11/16 15:36:47;;;;;;;6.57;2.75;;;13.40;95.80;;;;;;4965344;29;20219;-72
2022/11/16 15:39:20;;;;;;;6.85;2.13;;;13.20;96.50;;;;;;4954191;29;20038;-72
2022/11/16 15:41:46;;;;;;;7.35;1.70;;;13.10;96.80;;;;;;4954511;29;20070;-71
2022/11/16 15:44:14;;;;;;;7.93;2.80;;;12.90;97.20;;;;;;4965902;28;20031;-72
2022/11/16 15:46:43;;;;;;;7.97;3.90;;;12.80;97.30;;;;;;4966061;28;20043;-72
2022/11/16 15:49:29;;;;;;;;;;;12.60;97.80;;;;;;4969782;28;20027;-71
2022/11/16 15:51:57;;;;;;;14.05;6.20;;;12.40;98.00;;;;;;4964637;29;19906;-70
2022/11/16 15:54:29;;;;;;;10.25;5.15;;;12.30;98.80;;;;;;4962944;28;20387;-72
2022/11/16 15:57:04;;;;;;;8.23;3.60;;;12.20;99.20;;;;;;4962530;29;20035;-75
2022/11/16 15:59:33;;;;;;;4.55;1.30;;;12.10;99.60;;;;;;4965173;29;20075;-72
2022/11/16 16:01:59;;;;;;;6.30;1.40;;;12.10;99.90;;;;;;4969136;28;20065;-73
2022/11/16 16:04:25;;;;;;;4.45;1.10;;;12.00;99.90;;;;;;4983353;28;20053;-74
2022/11/16 16:06:53;;;;;;;9.80;3.92;;;11.90;99.60;;;;;;4984130;28;20031;-73
2022/11/16 16:09:31;;;;;;;6.50;2.03;;;11.90;99.90;;;;;;4984281;28;20074;-71
2022/11/16 16:12:23;;;;;;;6.90;1.92;;;11.80;99.90;;;;;;4983951;28;20031;-72
2022/11/16 16:14:50;;;;;;;5.50;1.75;;;11.60;99.90;;;;;;4967027;28;20085;-73
2022/11/16 16:17:28;;;;;;;5.53;1.17;;;11.60;99.90;;;;;;4979688;28;20301;-73
2022/11/16 16:19:56;;;;;;;7.50;3.25;;;11.50;99.90;;;;;;4984319;28;20041;-72
2022/11/16 16:22:31;;;;;;;8.15;3.83;;;11.40;99.90;;;;;;4983420;28;20121;-74
2022/11/16 16:24:58;;;;;;;7.68;2.72;;;11.40;99.90;;;;;;4983966;28;20054;-73
2022/11/16 16:27:26;;;;;;;4.70;1.65;;;11.30;99.90;;;;;;4983403;28;20055;-71
2022/11/16 16:29:53;;;;;;;6.00;1.52;;;11.20;99.90;;;;;;4983121;28;20089;-72
2022/11/16 16:32:25;;;;;;;5.53;1.70;;;11.20;99.90;;;;;;4983566;28;20054;-73
2022/11/16 16:34:52;;;;;;;4.90;2.83;;;11.10;99.90;;;;;;4981964;28;20470;-72
2022/11/16 16:37:17;;;;;;;8.15;3.30;;;11.00;99.90;;;;;;4977896;28;20043;-72
2022/11/16 16:39:43;;;;;;;4.93;2.70;;;10.90;99.90;;;;;;4982893;28;20019;-73
2022/11/16 16:42:15;;;;;;;8.13;3.40;;;10.80;99.90;;;;;;4983369;28;20031;-75
2022/11/16 16:44:42;;;;;;;7.22;3.00;;;10.80;99.90;;;;;;4983486;28;20547;-75
2022/11/16 16:47:08;;;;;;;6.78;2.83;;;10.60;99.90;;;;;;4965952;28;20022;-73
2022/11/16 16:49:34;;;;;;;8.98;3.10;;;10.50;99.90;;;;;;4982713;28;20023;-72
2022/11/16 16:52:00;;;;;;;7.15;2.90;;;10.50;99.90;;;;;;4983211;28;20038;-73
2022/11/16 16:54:27;;;;;;;7.97;3.10;;;10.40;99.90;;;;;;4981827;28;20065;-74
2022/11/16 16:56:54;;;;;;;8.95;2.67;;;10.40;99.90;;;;;;4997277;28;20149;-73
2022/11/16 16:59:20;;;;;;;7.55;2.75;;;10.30;99.90;;;;;;4983475;28;20098;-74
2022/11/16 17:01:46;;;;;;;7.00;3.00;;;10.30;99.90;;;;;;4965308;28;20055;-75
2022/11/16 17:04:12;;;;;;;7.07;3.17;;;10.30;99.90;;;;;;4983168;28;20392;-73
2022/11/16 17:06:37;;;;;;;11.18;5.10;;;10.20;99.90;;;;;;4982951;28;20045;-73
2022/11/16 17:09:04;;;;;;;10.95;4.72;;;10.10;99.90;;;;;;4997919;28;20271;-72
2022/11/16 17:11:29;;;;;;;8.80;4.15;;;10.10;99.90;;;;;;4982428;28;20217;-74
2022/11/16 17:13:55;;;;;;;9.13;3.92;;;10.10;99.90;;;;;;4983092;28;20038;-74
2022/11/16 17:16:22;;;;;;;8.90;3.70;;;10.00;99.90;;;;;;4983217;28;20030;-74
2022/11/16 17:18:53;;;;;;;10.00;4.00;;;10.00;99.90;;;;;;4978444;28;20030;-75
2022/11/16 17:21:19;;;;;;;11.80;4.40;;;10.00;99.90;;;;;;4983200;28;20034;-73
2022/11/16 17:23:45;;;;;;;9.75;5.22;;;9.90;99.90;;;;;;4965430;28;20073;-74
2022/11/16 17:26:14;;;;;;;11.48;5.72;;;9.80;99.90;;;;;;4983073;28;20026;-73
2022/11/16 17:28:39;;;;;;;11.93;6.85;;;9.70;99.90;;;;;;4965259;28;20066;-73
2022/11/16 17:31:08;;;;;;;11.45;5.65;;;9.70;99.90;;;;;;4982576;28;20035;-74
2022/11/16 17:33:34;;;;;;;;;;;9.70;99.90;;;;;;4965737;28;20027;-75
2022/11/16 17:36:02;;;;;;;16.77;6.32;;;9.70;99.90;;;;;;4982776;28;19977;-72
2022/11/16 17:38:32;;;;;;;11.45;6.22;;;9.60;99.90;;;;;;4978446;28;20026;-74
2022/11/16 17:41:06;;;;;;;11.25;5.97;;;9.60;99.90;;;;;;4964746;28;20035;-74
2022/11/16 17:43:32;;;;;;;14.38;5.88;;;9.60;99.90;;;;;;4981896;28;20026;-73
2022/11/16 17:46:18;;;;;;;12.43;5.45;;;9.60;99.90;;;;;;4981664;28;20046;-74
2022/11/16 17:48:46;;;;;;;11.48;4.78;;;9.60;99.90;;;;;;4982216;28;20050;-73
2022/11/16 17:51:14;;;;;;;9.13;4.63;;;9.70;99.90;;;;;;4982391;28;20093;-74
2022/11/16 17:53:43;;;;;;;10.85;3.33;;;9.70;99.90;;;;;;4980666;28;20029;-76
2022/11/16 17:56:11;;;;;;;8.90;3.47;;;9.80;99.90;;;;;;4997354;28;20053;-74
2022/11/16 17:58:37;;;;;;;5.90;2.80;;;9.80;99.90;;;;;;4981900;28;20035;-74
2022/11/16 18:01:03;;;;;;;7.90;3.38;;;9.80;99.90;;;;;;4977154;28;20319;-74
2022/11/16 18:03:29;;;;;;;6.45;3.30;;;9.90;99.90;;;;;;4981536;28;20061;-74
2022/11/16 18:06:03;;;;;;;7.13;3.30;;;9.90;99.90;;;;;;4965221;28;20107;-73
2022/11/16 18:08:31;;;;;;;9.13;3.28;;;9.90;99.90;;;;;;4981929;28;20363;-72
2022/11/16 18:11:10;;;;;;;12.63;4.30;;;10.00;99.90;;;;;;4981797;28;20320;-73
2022/11/16 18:13:37;;;;;;;9.13;3.80;;;10.00;99.90;;;;;;4981498;28;20426;-73
2022/11/16 18:16:07;;;;;;;11.40;4.30;;;10.10;99.90;;;;;;4982190;28;20265;-74
2022/11/16 18:18:33;;;;;;;7.57;3.17;;;10.20;99.90;;;;;;4981420;28;20038;-73
2022/11/16 18:21:00;;;;;;;9.80;3.22;;;10.30;99.90;;;;;;4978900;28;20034;-74
2022/11/16 18:23:34;;;;;;;8.10;2.85;;;10.30;99.90;;;;;;4964097;28;20031;-75
2022/11/16 18:26:02;;;;;;;8.55;3.20;;;10.30;99.90;;;;;;4981880;28;20027;-72
2022/11/16 18:28:29;;;;;;;8.43;3.20;;;10.30;99.90;;;;;;4980895;28;20098;-73
2022/11/16 18:31:24;;;;;;;6.80;3.13;;;10.30;99.90;;;;;;4950133;29;20035;-73
2022/11/16 18:33:50;;;;;;;8.77;3.38;;;10.30;99.90;;;;;;4960786;29;20332;-74
2022/11/16 18:36:20;;;;;;;8.88;2.97;;;10.30;99.90;;;;;;4977671;28;20094;-73
2022/11/16 18:38:45;;;;;;;7.32;3.33;;;10.30;99.90;;;;;;4977244;28;20192;-73
2022/11/16 18:41:18;;;;;;;11.43;3.17;;;10.30;99.90;;;;;;4965551;28;20213;-73
2022/11/16 18:43:51;;;;;;;8.43;3.97;;;10.20;99.90;;;;;;4980240;28;20309;-73
2022/11/16 18:46:18;;;;;;;10.57;3.80;;;10.20;99.90;;;;;;4981859;28;20045;-73
2022/11/16 18:48:45;;;;;;;9.07;3.60;;;10.20;99.90;;;;;;4981346;28;20030;-73
2022/11/16 18:51:12;;;;;;;8.23;3.90;;;10.10;99.90;;;;;;4981867;28;20034;-73
2022/11/16 18:53:38;;;;;;;7.65;3.63;;;9.90;99.90;;;;;;4983057;28;20273;-74
2022/11/16 18:56:04;;;;;;;10.05;4.45;;;9.80;99.90;;;;;;4985778;28;20027;-72
2022/11/16 18:58:30;;;;;;;8.55;3.70;;;9.70;99.90;;;;;;4985106;28;20340;-73
2022/11/16 19:01:08;;;;;;;12.10;3.78;;;9.60;99.90;;;;;;4985676;28;20033;-73
2022/11/16 19:03:34;;;;;;;11.65;3.80;;;9.50;99.90;;;;;;4985169;28;20115;-72
2022/11/16 19:06:03;;;;;;;9.00;3.40;;;9.40;99.90;;;;;;4984228;28;20340;-75
2022/11/16 19:08:29;;;;;;;;;;;9.30;99.90;;;;;;4985725;28;20252;-73
2022/11/16 19:10:55;;;;;;;9.35;3.72;;;9.20;99.90;;;;;;4984172;28;19913;-74
2022/11/16 19:13:21;;;;;;;9.32;3.80;;;9.20;99.90;;;;;;4985156;28;20035;-74
2022/11/16 19:15:48;;;;;;;6.65;3.10;;;9.20;99.90;;;;;;4999923;28;20293;-73
2022/11/16 19:18:15;;;;;;;7.67;3.50;;;9.10;99.90;;;;;;4985258;28;20074;-72
2022/11/16 19:20:40;;;;;;;13.10;4.20;;;8.90;99.90;;;;;;4984646;28;20042;-73
2022/11/16 19:23:06;;;;;;;9.73;3.70;;;8.80;99.90;;;;;;4984973;28;20371;-73
2022/11/16 19:25:32;;;;;;;11.63;5.05;;;8.70;99.90;;;;;;4984648;28;20104;-75